sensor_id;sensor_type;location;lat;lon;timestamp;pressure;altitude;pressure_sealevel;temperature;humidity
48216;BME280;34005;48.844;10.098;2024-02-26T00:00:44;94861.00;;;5.98;64.49
48216;BME280;34005;48.844;10.098;2024-02-26T00:03:12;94866.16;;;5.98;64.47
48216;BME280;34005;48.844;10.098;2024-02-26T00:05:42;94864.78;;;6.02;64.42
48216;BME280;34005;48.844;10.098;2024-02-26T00:08:09;94862.41;;;6.07;63.85
48216;BME280;34005;48.844;10.098;2024-02-26T00:10:37;94854.25;;;6.10;63.41
48216;BME280;34005;48.844;10.098;2024-02-26T00:13:04;94857.25;;;6.14;63.21
48216;BME280;34005;48.844;10.098;2024-02-26T00:15:32;94864.41;;;6.18;63.80
48216;BME280;34005;48.844;10.098;2024-02-26T00:18:01;94857.25;;;6.21;64.05
48216;BME280;34005;48.844;10.098;2024-02-26T00:20:29;94851.88;;;6.22;63.80
48216;BME280;34005;48.844;10.098;2024-02-26T00:22:58;94843.94;;;6.24;63.69
48216;BME280;34005;48.844;10.098;2024-02-26T00:25:25;94849.88;;;6.24;63.18
48216;BME280;34005;48.844;10.098;2024-02-26T00:27:53;94848.69;;;6.20;63.96
48216;BME280;34005;48.844;10.098;2024-02-26T00:30:20;94853.44;;;6.16;63.48
48216;BME280;34005;48.844;10.098;2024-02-26T00:32:49;94855.06;;;6.17;63.40
48216;BME280;34005;48.844;10.098;2024-02-26T00:35:16;94863.81;;;6.16;63.19
48216;BME280;34005;48.844;10.098;2024-02-26T00:37:46;94867.41;;;6.15;63.55
48216;BME280;34005;48.844;10.098;2024-02-26T00:40:16;94862.22;;;6.15;64.37
48216;BME280;34005;48.844;10.098;2024-02-26T00:42:43;94864.22;;;6.13;63.79
48216;BME280;34005;48.844;10.098;2024-02-26T00:45:12;94864.63;;;6.10;63.85
48216;BME280;34005;48.844;10.098;2024-02-26T00:47:40;94871.38;;;6.11;64.92
48216;BME280;34005;48.844;10.098;2024-02-26T00:50:09;94877.56;;;6.17;67.08
48216;BME280;34005;48.844;10.098;2024-02-26T00:52:37;94871.19;;;6.19;65.23
48216;BME280;34005;48.844;10.098;2024-02-26T00:55:06;94877.34;;;6.18;64.59
48216;BME280;34005;48.844;10.098;2024-02-26T00:57:35;94875.78;;;6.17;64.21
48216;BME280;34005;48.844;10.098;2024-02-26T01:00:03;94872.59;;;6.15;64.35
48216;BME280;34005;48.844;10.098;2024-02-26T01:02:31;94877.75;;;6.15;64.08
48216;BME280;34005;48.844;10.098;2024-02-26T01:04:58;94865.59;;;6.16;64.01
48216;BME280;34005;48.844;10.098;2024-02-26T01:07:26;94868.59;;;6.13;63.98
48216;BME280;34005;48.844;10.098;2024-02-26T01:09:54;94863.00;;;6.09;64.19
48216;BME280;34005;48.844;10.098;2024-02-26T01:12:21;94866.19;;;6.05;64.79
48216;BME280;34005;48.844;10.098;2024-02-26T01:14:50;94867.75;;;5.99;64.72
48216;BME280;34005;48.844;10.098;2024-02-26T01:17:18;94863.78;;;5.96;64.32
48216;BME280;34005;48.844;10.098;2024-02-26T01:19:46;94856.56;;;5.92;64.28
48216;BME280;34005;48.844;10.098;2024-02-26T01:22:13;94852.78;;;5.88;64.18
48216;BME280;34005;48.844;10.098;2024-02-26T01:24:41;94855.34;;;5.88;64.91
48216;BME280;34005;48.844;10.098;2024-02-26T01:27:08;94852.00;;;5.94;64.54
48216;BME280;34005;48.844;10.098;2024-02-26T01:29:36;94855.81;;;5.98;64.69
48216;BME280;34005;48.844;10.098;2024-02-26T01:32:05;94855.41;;;6.01;63.42
48216;BME280;34005;48.844;10.098;2024-02-26T01:34:33;94843.06;;;6.03;63.26
48216;BME280;34005;48.844;10.098;2024-02-26T01:37:03;94854.03;;;6.05;63.21
48216;BME280;34005;48.844;10.098;2024-02-26T01:39:31;94847.88;;;6.06;63.12
48216;BME280;34005;48.844;10.098;2024-02-26T01:41:58;94845.06;;;6.08;63.17
48216;BME280;34005;48.844;10.098;2024-02-26T01:44:26;94848.06;;;6.11;65.09
48216;BME280;34005;48.844;10.098;2024-02-26T01:46:54;94856.25;;;6.15;63.97
48216;BME280;34005;48.844;10.098;2024-02-26T01:49:24;94845.13;;;6.14;64.18
48216;BME280;34005;48.844;10.098;2024-02-26T01:51:51;94859.22;;;6.18;64.50
48216;BME280;34005;48.844;10.098;2024-02-26T01:54:19;94849.47;;;6.21;63.49
48216;BME280;34005;48.844;10.098;2024-02-26T01:56:47;94851.09;;;6.22;64.26
48216;BME280;34005;48.844;10.098;2024-02-26T01:59:15;94851.69;;;6.24;64.11
48216;BME280;34005;48.844;10.098;2024-02-26T02:01:44;94859.84;;;6.27;67.38
48216;BME280;34005;48.844;10.098;2024-02-26T02:04:15;94850.91;;;6.30;65.58
48216;BME280;34005;48.844;10.098;2024-02-26T02:06:45;94852.50;;;6.31;66.64
48216;BME280;34005;48.844;10.098;2024-02-26T02:09:13;94857.84;;;6.29;64.83
48216;BME280;34005;48.844;10.098;2024-02-26T02:11:41;94851.09;;;6.28;66.17
48216;BME280;34005;48.844;10.098;2024-02-26T02:14:08;94831.38;;;6.27;64.49
48216;BME280;34005;48.844;10.098;2024-02-26T02:16:36;94841.13;;;6.25;64.14
48216;BME280;34005;48.844;10.098;2024-02-26T02:19:04;94840.31;;;6.25;63.60
48216;BME280;34005;48.844;10.098;2024-02-26T02:21:32;94836.94;;;6.31;67.09
48216;BME280;34005;48.844;10.098;2024-02-26T02:24:00;94830.78;;;6.38;68.73
48216;BME280;34005;48.844;10.098;2024-02-26T02:26:28;94843.94;;;6.50;70.45
48216;BME280;34005;48.844;10.098;2024-02-26T02:28:55;94841.16;;;6.58;70.68
48216;BME280;34005;48.844;10.098;2024-02-26T02:31:23;94844.53;;;6.59;69.08
48216;BME280;34005;48.844;10.098;2024-02-26T02:33:51;94851.50;;;6.58;67.94
48216;BME280;34005;48.844;10.098;2024-02-26T02:36:19;94845.50;;;6.58;66.57
48216;BME280;34005;48.844;10.098;2024-02-26T02:38:51;94847.13;;;6.52;64.17
48216;BME280;34005;48.844;10.098;2024-02-26T02:41:19;94845.13;;;6.48;65.95
48216;BME280;34005;48.844;10.098;2024-02-26T02:43:48;94836.34;;;6.42;65.84
48216;BME280;34005;48.844;10.098;2024-02-26T02:46:15;94852.09;;;6.34;65.03
48216;BME280;34005;48.844;10.098;2024-02-26T02:48:43;94851.88;;;6.22;64.52
48216;BME280;34005;48.844;10.098;2024-02-26T02:51:11;94840.91;;;6.13;64.10
48216;BME280;34005;48.844;10.098;2024-02-26T02:53:38;94847.09;;;6.06;64.47
48216;BME280;34005;48.844;10.098;2024-02-26T02:56:07;94838.31;;;6.00;64.20
48216;BME280;34005;48.844;10.098;2024-02-26T02:58:35;94838.09;;;5.95;63.93
48216;BME280;34005;48.844;10.098;2024-02-26T03:01:03;94840.66;;;5.88;64.13
48216;BME280;34005;48.844;10.098;2024-02-26T03:03:30;94841.44;;;5.82;63.88
48216;BME280;34005;48.844;10.098;2024-02-26T03:05:58;94841.41;;;5.75;64.18
48216;BME280;34005;48.844;10.098;2024-02-26T03:08:26;94844.59;;;5.71;64.29
48216;BME280;34005;48.844;10.098;2024-02-26T03:10:53;94856.91;;;5.69;64.20
48216;BME280;34005;48.844;10.098;2024-02-26T03:13:22;94852.91;;;5.66;64.30
48216;BME280;34005;48.844;10.098;2024-02-26T03:15:50;94854.91;;;5.64;64.53
48216;BME280;34005;48.844;10.098;2024-02-26T03:18:18;94860.88;;;5.65;64.45
48216;BME280;34005;48.844;10.098;2024-02-26T03:20:45;94866.41;;;5.62;64.17
48216;BME280;34005;48.844;10.098;2024-02-26T03:23:13;94864.41;;;5.57;64.28
48216;BME280;34005;48.844;10.098;2024-02-26T03:25:44;94870.59;;;5.56;64.66
48216;BME280;34005;48.844;10.098;2024-02-26T03:28:12;94877.34;;;5.57;66.38
48216;BME280;34005;48.844;10.098;2024-02-26T03:30:41;94878.75;;;5.60;65.32
48216;BME280;34005;48.844;10.098;2024-02-26T03:33:08;94883.72;;;5.61;65.36
48216;BME280;34005;48.844;10.098;2024-02-26T03:35:36;94876.38;;;5.65;66.13
48216;BME280;34005;48.844;10.098;2024-02-26T03:38:04;94887.53;;;5.65;64.93
48216;BME280;34005;48.844;10.098;2024-02-26T03:40:31;94892.13;;;5.70;67.81
48216;BME280;34005;48.844;10.098;2024-02-26T03:42:59;94875.63;;;5.71;66.12
48216;BME280;34005;48.844;10.098;2024-02-26T03:45:26;94882.56;;;5.70;65.04
48216;BME280;34005;48.844;10.098;2024-02-26T03:47:55;94875.19;;;5.67;64.95
48216;BME280;34005;48.844;10.098;2024-02-26T03:50:23;94878.75;;;5.66;64.82
48216;BME280;34005;48.844;10.098;2024-02-26T03:52:51;94865.84;;;5.66;65.04
48216;BME280;34005;48.844;10.098;2024-02-26T03:55:18;94872.00;;;5.65;64.89
48216;BME280;34005;48.844;10.098;2024-02-26T03:57:51;94865.44;;;5.63;64.48
48216;BME280;34005;48.844;10.098;2024-02-26T04:00:19;94860.84;;;5.58;64.28
48216;BME280;34005;48.844;10.098;2024-02-26T04:02:48;94889.91;;;5.60;64.09
48216;BME280;34005;48.844;10.098;2024-02-26T04:05:17;94904.06;;;5.64;63.86
48216;BME280;34005;48.844;10.098;2024-02-26T04:07:45;94899.09;;;5.69;64.32
48216;BME280;34005;48.844;10.098;2024-02-26T04:10:13;94891.94;;;5.71;65.69
48216;BME280;34005;48.844;10.098;2024-02-26T04:12:41;94897.50;;;5.75;65.61
48216;BME280;34005;48.844;10.098;2024-02-26T04:15:10;94901.53;;;5.77;65.35
48216;BME280;34005;48.844;10.098;2024-02-26T04:17:38;94898.72;;;5.79;64.74
48216;BME280;34005;48.844;10.098;2024-02-26T04:20:07;94894.75;;;5.83;64.83
48216;BME280;34005;48.844;10.098;2024-02-26T04:22:37;94894.75;;;5.83;64.03
48216;BME280;34005;48.844;10.098;2024-02-26T04:25:05;94892.78;;;5.85;63.87
48216;BME280;34005;48.844;10.098;2024-02-26T04:27:33;94895.19;;;5.87;63.66
48216;BME280;34005;48.844;10.098;2024-02-26T04:30:00;94885.81;;;5.86;63.63
48216;BME280;34005;48.844;10.098;2024-02-26T04:32:28;94897.59;;;5.88;63.63
48216;BME280;34005;48.844;10.098;2024-02-26T04:34:57;94896.56;;;5.89;63.55
48216;BME280;34005;48.844;10.098;2024-02-26T04:37:24;94897.00;;;5.93;64.98
48216;BME280;34005;48.844;10.098;2024-02-26T04:39:59;94887.06;;;5.96;64.56
48216;BME280;34005;48.844;10.098;2024-02-26T04:42:27;94901.63;;;5.97;64.07
48216;BME280;34005;48.844;10.098;2024-02-26T04:44:55;94885.88;;;5.99;63.19
48216;BME280;34005;48.844;10.098;2024-02-26T04:47:22;94880.50;;;6.01;62.82
48216;BME280;34005;48.844;10.098;2024-02-26T04:49:50;94890.50;;;6.04;62.26
48216;BME280;34005;48.844;10.098;2024-02-26T04:52:19;94909.22;;;6.06;63.82
48216;BME280;34005;48.844;10.098;2024-02-26T04:54:46;94908.63;;;6.10;63.57
48216;BME280;34005;48.844;10.098;2024-02-26T04:57:15;94898.88;;;6.12;62.84
48216;BME280;34005;48.844;10.098;2024-02-26T04:59:44;94893.69;;;6.12;62.68
48216;BME280;34005;48.844;10.098;2024-02-26T05:02:13;94884.31;;;6.11;62.96
48216;BME280;34005;48.844;10.098;2024-02-26T05:04:41;94886.91;;;6.11;63.35
48216;BME280;34005;48.844;10.098;2024-02-26T05:07:08;94870.78;;;6.16;62.98
48216;BME280;34005;48.844;10.098;2024-02-26T05:09:36;94867.00;;;6.18;62.85
48216;BME280;34005;48.844;10.098;2024-02-26T05:12:04;94864.81;;;6.22;62.50
48216;BME280;34005;48.844;10.098;2024-02-26T05:14:33;94865.44;;;6.24;62.48
48216;BME280;34005;48.844;10.098;2024-02-26T05:17:01;94859.25;;;6.25;62.40
48216;BME280;34005;48.844;10.098;2024-02-26T05:19:28;94870.41;;;6.26;62.20
48216;BME280;34005;48.844;10.098;2024-02-26T05:21:56;94871.03;;;6.28;63.06
48216;BME280;34005;48.844;10.098;2024-02-26T05:24:24;94874.78;;;6.32;62.60
48216;BME280;34005;48.844;10.098;2024-02-26T05:26:53;94871.81;;;6.35;63.33
48216;BME280;34005;48.844;10.098;2024-02-26T05:29:20;94888.94;;;6.36;62.52
48216;BME280;34005;48.844;10.098;2024-02-26T05:31:49;94882.38;;;6.33;64.91
48216;BME280;34005;48.844;10.098;2024-02-26T05:34:17;94879.38;;;6.30;63.69
48216;BME280;34005;48.844;10.098;2024-02-26T05:36:44;94885.97;;;6.26;64.03
48216;BME280;34005;48.844;10.098;2024-02-26T05:39:12;94877.97;;;6.21;63.03
48216;BME280;34005;48.844;10.098;2024-02-26T05:41:45;94891.72;;;6.14;63.66
48216;BME280;34005;48.844;10.098;2024-02-26T05:44:12;94891.47;;;6.09;63.04
48216;BME280;34005;48.844;10.098;2024-02-26T05:46:41;94890.69;;;6.02;62.76
48216;BME280;34005;48.844;10.098;2024-02-26T05:49:10;94892.06;;;5.98;62.85
48216;BME280;34005;48.844;10.098;2024-02-26T05:51:38;94876.53;;;5.98;62.94
48216;BME280;34005;48.844;10.098;2024-02-26T05:54:05;94869.38;;;6.00;63.09
48216;BME280;34005;48.844;10.098;2024-02-26T05:56:34;94866.59;;;6.02;62.85
48216;BME280;34005;48.844;10.098;2024-02-26T05:59:02;94873.53;;;6.01;62.56
48216;BME280;34005;48.844;10.098;2024-02-26T06:01:30;94874.56;;;6.07;65.02
48216;BME280;34005;48.844;10.098;2024-02-26T06:03:58;94891.72;;;6.14;65.98
48216;BME280;34005;48.844;10.098;2024-02-26T06:06:27;94887.34;;;6.22;64.44
48216;BME280;34005;48.844;10.098;2024-02-26T06:08:55;94884.16;;;6.26;65.79
48216;BME280;34005;48.844;10.098;2024-02-26T06:11:22;94887.16;;;6.30;64.99
48216;BME280;34005;48.844;10.098;2024-02-26T06:13:50;94885.53;;;6.29;63.30
48216;BME280;34005;48.844;10.098;2024-02-26T06:16:18;94885.38;;;6.30;65.79
48216;BME280;34005;48.844;10.098;2024-02-26T06:18:45;94886.16;;;6.37;66.10
48216;BME280;34005;48.844;10.098;2024-02-26T06:21:13;94891.53;;;6.43;65.29
48216;BME280;34005;48.844;10.098;2024-02-26T06:23:42;94890.38;;;6.45;63.57
48216;BME280;34005;48.844;10.098;2024-02-26T06:26:09;94896.16;;;6.47;63.10
48216;BME280;34005;48.844;10.098;2024-02-26T06:28:37;94899.91;;;6.45;64.84
48216;BME280;34005;48.844;10.098;2024-02-26T06:31:07;94913.25;;;6.42;63.74
48216;BME280;34005;48.844;10.098;2024-02-26T06:33:34;94919.63;;;6.39;63.28
48216;BME280;34005;48.844;10.098;2024-02-26T06:36:03;94933.56;;;6.38;64.03
48216;BME280;34005;48.844;10.098;2024-02-26T06:38:31;94938.13;;;6.36;65.14
48216;BME280;34005;48.844;10.098;2024-02-26T06:41:00;94949.31;;;6.36;64.57
48216;BME280;34005;48.844;10.098;2024-02-26T06:43:29;94944.69;;;6.32;63.54
48216;BME280;34005;48.844;10.098;2024-02-26T06:45:57;94951.47;;;6.26;63.48
48216;BME280;34005;48.844;10.098;2024-02-26T06:48:24;94947.50;;;6.24;63.26
48216;BME280;34005;48.844;10.098;2024-02-26T06:50:52;94962.03;;;6.25;63.77
48216;BME280;34005;48.844;10.098;2024-02-26T06:53:20;94963.84;;;6.31;64.94
48216;BME280;34005;48.844;10.098;2024-02-26T06:55:47;94959.88;;;6.35;65.26
48216;BME280;34005;48.844;10.098;2024-02-26T06:58:18;94960.47;;;6.37;65.81
48216;BME280;34005;48.844;10.098;2024-02-26T07:00:45;94954.28;;;6.38;65.43
48216;BME280;34005;48.844;10.098;2024-02-26T07:03:13;94957.47;;;6.33;65.30
48216;BME280;34005;48.844;10.098;2024-02-26T07:05:41;94958.66;;;6.31;65.20
48216;BME280;34005;48.844;10.098;2024-02-26T07:08:11;94957.88;;;6.30;64.99
48216;BME280;34005;48.844;10.098;2024-02-26T07:10:39;94960.66;;;6.29;64.49
48216;BME280;34005;48.844;10.098;2024-02-26T07:13:06;94951.47;;;6.26;64.17
48216;BME280;34005;48.844;10.098;2024-02-26T07:15:35;94961.22;;;6.24;64.33
48216;BME280;34005;48.844;10.098;2024-02-26T07:18:03;94961.41;;;6.23;64.33
48216;BME280;34005;48.844;10.098;2024-02-26T07:20:31;94959.44;;;6.25;64.68
48216;BME280;34005;48.844;10.098;2024-02-26T07:22:59;94969.19;;;6.29;64.55
48216;BME280;34005;48.844;10.098;2024-02-26T07:25:27;94975.81;;;6.38;66.96
48216;BME280;34005;48.844;10.098;2024-02-26T07:27:54;94983.63;;;6.45;67.20
48216;BME280;34005;48.844;10.098;2024-02-26T07:30:22;94980.19;;;6.45;65.18
48216;BME280;34005;48.844;10.098;2024-02-26T07:32:52;94979.81;;;6.48;68.05
48216;BME280;34005;48.844;10.098;2024-02-26T07:35:20;94985.03;;;6.54;66.45
48216;BME280;34005;48.844;10.098;2024-02-26T07:37:48;94986.22;;;6.58;65.01
48216;BME280;34005;48.844;10.098;2024-02-26T07:40:15;94990.03;;;6.56;64.36
48216;BME280;34005;48.844;10.098;2024-02-26T07:42:43;94986.41;;;6.50;64.54
48216;BME280;34005;48.844;10.098;2024-02-26T07:45:11;94984.78;;;6.49;64.27
48216;BME280;34005;48.844;10.098;2024-02-26T07:47:38;94987.38;;;6.49;63.74
48216;BME280;34005;48.844;10.098;2024-02-26T07:50:09;94987.38;;;6.49;63.37
48216;BME280;34005;48.844;10.098;2024-02-26T07:52:38;94975.03;;;6.51;63.47
48216;BME280;34005;48.844;10.098;2024-02-26T07:55:07;94978.84;;;6.55;63.58
48216;BME280;34005;48.844;10.098;2024-02-26T07:57:34;94981.66;;;6.60;62.92
48216;BME280;34005;48.844;10.098;2024-02-26T08:00:03;94973.06;;;6.67;62.67
48216;BME280;34005;48.844;10.098;2024-02-26T08:02:33;94967.09;;;6.73;64.54
48216;BME280;34005;48.844;10.098;2024-02-26T08:05:01;94972.50;;;6.78;63.25
48216;BME280;34005;48.844;10.098;2024-02-26T08:07:30;94969.31;;;6.83;62.89
48216;BME280;34005;48.844;10.098;2024-02-26T08:09:57;94969.31;;;6.89;62.65
48216;BME280;34005;48.844;10.098;2024-02-26T08:12:25;94969.53;;;6.94;62.53
48216;BME280;34005;48.844;10.098;2024-02-26T08:14:52;94970.31;;;7.01;62.21
48216;BME280;34005;48.844;10.098;2024-02-26T08:17:20;94977.91;;;7.10;61.95
48216;BME280;34005;48.844;10.098;2024-02-26T08:19:48;94978.69;;;7.23;61.90
48216;BME280;34005;48.844;10.098;2024-02-26T08:22:15;94982.25;;;7.42;61.83
48216;BME280;34005;48.844;10.098;2024-02-26T08:24:45;94987.84;;;7.59;61.08
48216;BME280;34005;48.844;10.098;2024-02-26T08:27:13;94976.84;;;7.71;60.45
48216;BME280;34005;48.844;10.098;2024-02-26T08:29:40;94980.00;;;7.79;59.83
48216;BME280;34005;48.844;10.098;2024-02-26T08:32:08;94983.59;;;7.85;59.46
48216;BME280;34005;48.844;10.098;2024-02-26T08:34:36;94978.59;;;7.90;59.95
48216;BME280;34005;48.844;10.098;2024-02-26T08:37:03;94983.56;;;7.92;59.18
48216;BME280;34005;48.844;10.098;2024-02-26T08:39:31;94988.16;;;7.90;58.91
48216;BME280;34005;48.844;10.098;2024-02-26T08:42:00;94982.56;;;7.93;59.84
48216;BME280;34005;48.844;10.098;2024-02-26T08:44:27;94984.16;;;7.94;59.97
48216;BME280;34005;48.844;10.098;2024-02-26T08:46:55;94995.34;;;7.94;59.86
48216;BME280;34005;48.844;10.098;2024-02-26T08:49:23;94985.56;;;7.96;60.23
48216;BME280;34005;48.844;10.098;2024-02-26T08:51:50;94996.91;;;8.02;60.50
48216;BME280;34005;48.844;10.098;2024-02-26T08:54:18;94998.50;;;8.03;60.32
48216;BME280;34005;48.844;10.098;2024-02-26T08:56:46;95009.50;;;8.05;60.40
48216;BME280;34005;48.844;10.098;2024-02-26T08:59:15;95008.28;;;8.08;60.39
48216;BME280;34005;48.844;10.098;2024-02-26T09:01:42;95007.28;;;8.09;59.91
48216;BME280;34005;48.844;10.098;2024-02-26T09:04:10;95007.06;;;8.10;59.78
48216;BME280;34005;48.844;10.098;2024-02-26T09:06:37;95011.84;;;8.13;59.58
48216;BME280;34005;48.844;10.098;2024-02-26T09:09:05;95016.06;;;8.14;59.38
48216;BME280;34005;48.844;10.098;2024-02-26T09:11:33;95012.44;;;8.15;59.22
48216;BME280;34005;48.844;10.098;2024-02-26T09:14:00;95017.84;;;8.20;59.47
48216;BME280;34005;48.844;10.098;2024-02-26T09:16:29;95021.41;;;8.26;58.91
48216;BME280;34005;48.844;10.098;2024-02-26T09:18:57;95020.38;;;8.34;58.71
48216;BME280;34005;48.844;10.098;2024-02-26T09:21:24;95029.56;;;8.43;58.73
48216;BME280;34005;48.844;10.098;2024-02-26T09:23:52;95030.31;;;8.50;58.44
48216;BME280;34005;48.844;10.098;2024-02-26T09:26:20;95032.69;;;8.58;58.08
48216;BME280;34005;48.844;10.098;2024-02-26T09:28:48;95027.44;;;8.65;57.89
48216;BME280;34005;48.844;10.098;2024-02-26T09:31:17;95032.63;;;8.72;57.85
48216;BME280;34005;48.844;10.098;2024-02-26T09:33:46;95034.38;;;8.78;57.77
48216;BME280;34005;48.844;10.098;2024-02-26T09:36:14;95039.56;;;8.84;57.88
48216;BME280;34005;48.844;10.098;2024-02-26T09:38:41;95042.13;;;8.91;57.69
48216;BME280;34005;48.844;10.098;2024-02-26T09:41:22;95050.91;;;8.97;58.30
48216;BME280;34005;48.844;10.098;2024-02-26T09:43:52;95055.03;;;9.04;60.67
48216;BME280;34005;48.844;10.098;2024-02-26T09:46:22;95057.59;;;9.11;58.35
48216;BME280;34005;48.844;10.098;2024-02-26T09:48:52;95044.38;;;9.13;57.69
48216;BME280;34005;48.844;10.098;2024-02-26T09:51:22;95054.16;;;9.17;57.58
48216;BME280;34005;48.844;10.098;2024-02-26T09:53:52;95056.91;;;9.22;57.45
48216;BME280;34005;48.844;10.098;2024-02-26T09:56:21;95050.28;;;9.26;57.24
48216;BME280;34005;48.844;10.098;2024-02-26T09:58:49;95054.84;;;9.31;56.74
48216;BME280;34005;48.844;10.098;2024-02-26T10:01:20;95058.41;;;9.37;56.73
48216;BME280;34005;48.844;10.098;2024-02-26T10:03:55;95066.19;;;9.43;56.38
48216;BME280;34005;48.844;10.098;2024-02-26T10:06:25;95068.88;;;9.55;56.58
48216;BME280;34005;48.844;10.098;2024-02-26T10:08:54;95067.97;;;9.68;56.43
48216;BME280;34005;48.844;10.098;2024-02-26T10:11:22;95065.03;;;9.83;55.96
48216;BME280;34005;48.844;10.098;2024-02-26T10:13:51;95072.47;;;10.04;55.63
48216;BME280;34005;48.844;10.098;2024-02-26T10:16:19;95070.88;;;10.22;54.96
48216;BME280;34005;48.844;10.098;2024-02-26T10:18:47;95073.75;;;10.39;55.01
48216;BME280;34005;48.844;10.098;2024-02-26T10:21:20;95069.31;;;10.58;54.22
48216;BME280;34005;48.844;10.098;2024-02-26T10:23:49;95074.63;;;10.81;54.33
48216;BME280;34005;48.844;10.098;2024-02-26T10:26:17;95072.91;;;11.05;54.17
48216;BME280;34005;48.844;10.098;2024-02-26T10:28:45;95072.31;;;11.33;53.63
48216;BME280;34005;48.844;10.098;2024-02-26T10:31:18;95070.53;;;11.58;52.72
48216;BME280;34005;48.844;10.098;2024-02-26T10:33:46;95070.78;;;11.68;52.02
48216;BME280;34005;48.844;10.098;2024-02-26T10:36:14;95075.09;;;11.74;55.48
48216;BME280;34005;48.844;10.098;2024-02-26T10:38:43;95076.94;;;11.85;55.01
48216;BME280;34005;48.844;10.098;2024-02-26T10:41:13;95075.13;;;11.98;53.23
48216;BME280;34005;48.844;10.098;2024-02-26T10:43:41;95072.53;;;12.09;52.30
48216;BME280;34005;48.844;10.098;2024-02-26T10:46:09;95069.91;;;12.21;51.29
48216;BME280;34005;48.844;10.098;2024-02-26T10:48:37;95068.50;;;12.30;50.42
48216;BME280;34005;48.844;10.098;2024-02-26T10:51:04;95060.78;;;12.35;50.26
48216;BME280;34005;48.844;10.098;2024-02-26T10:53:33;95063.50;;;12.41;49.60
48216;BME280;34005;48.844;10.098;2024-02-26T10:56:04;95059.06;;;12.41;48.91
48216;BME280;34005;48.844;10.098;2024-02-26T10:58:33;95063.81;;;12.56;53.04
48216;BME280;34005;48.844;10.098;2024-02-26T11:01:00;95061.56;;;12.76;51.96
48216;BME280;34005;48.844;10.098;2024-02-26T11:03:29;95064.75;;;13.07;49.34
48216;BME280;34005;48.844;10.098;2024-02-26T11:06:01;95063.72;;;13.37;47.99
48216;BME280;34005;48.844;10.098;2024-02-26T11:08:31;95063.03;;;13.58;47.09
48216;BME280;34005;48.844;10.098;2024-02-26T11:11:00;95050.50;;;13.77;46.94
48216;BME280;34005;48.844;10.098;2024-02-26T11:13:30;95049.34;;;13.90;45.71
48216;BME280;34005;48.844;10.098;2024-02-26T11:16:03;95046.25;;;13.93;46.45
48216;BME280;34005;48.844;10.098;2024-02-26T11:18:31;95046.25;;;13.93;45.98
48216;BME280;34005;48.844;10.098;2024-02-26T11:20:59;95046.72;;;13.90;46.41
48216;BME280;34005;48.844;10.098;2024-02-26T11:23:27;95049.50;;;13.84;47.18
48216;BME280;34005;48.844;10.098;2024-02-26T11:25:57;95050.16;;;13.74;47.54
48216;BME280;34005;48.844;10.098;2024-02-26T11:28:28;95050.00;;;13.64;49.75
48216;BME280;34005;48.844;10.098;2024-02-26T11:30:59;95040.47;;;13.57;48.38
48216;BME280;34005;48.844;10.098;2024-02-26T11:33:28;95042.41;;;13.45;48.67
48216;BME280;34005;48.844;10.098;2024-02-26T11:35:56;95041.34;;;13.29;49.16
48216;BME280;34005;48.844;10.098;2024-02-26T11:38:26;95044.00;;;13.17;49.33
48216;BME280;34005;48.844;10.098;2024-02-26T11:40:54;95045.88;;;13.05;49.58
48216;BME280;34005;48.844;10.098;2024-02-26T11:43:23;95044.34;;;12.92;50.65
48216;BME280;34005;48.844;10.098;2024-02-26T11:45:52;95043.94;;;12.84;51.25
48216;BME280;34005;48.844;10.098;2024-02-26T11:48:24;95042.34;;;12.83;51.06
48216;BME280;34005;48.844;10.098;2024-02-26T11:50:53;95047.00;;;12.81;50.89
48216;BME280;34005;48.844;10.098;2024-02-26T11:53:23;95049.06;;;12.78;50.67
48216;BME280;34005;48.844;10.098;2024-02-26T11:56:12;95043.97;;;12.72;50.33
48216;BME280;34005;48.844;10.098;2024-02-26T11:58:40;95048.88;;;12.68;51.20
48216;BME280;34005;48.844;10.098;2024-02-26T12:01:37;95054.13;;;12.68;50.69
48216;BME280;34005;48.844;10.098;2024-02-26T12:04:06;95046.16;;;12.63;50.46
48216;BME280;34005;48.844;10.098;2024-02-26T12:07:02;95055.75;;;12.57;52.33
48216;BME280;34005;48.844;10.098;2024-02-26T12:09:31;95051.75;;;12.55;51.22
48216;BME280;34005;48.844;10.098;2024-02-26T12:12:00;95046.41;;;12.50;51.60
48216;BME280;34005;48.844;10.098;2024-02-26T12:14:28;95042.78;;;12.51;51.98
48216;BME280;34005;48.844;10.098;2024-02-26T12:16:57;95045.41;;;12.51;51.05
48216;BME280;34005;48.844;10.098;2024-02-26T12:19:27;95046.97;;;12.52;51.37
48216;BME280;34005;48.844;10.098;2024-02-26T12:21:55;95054.25;;;12.50;50.99
48216;BME280;34005;48.844;10.098;2024-02-26T12:24:22;95056.88;;;12.50;53.76
48216;BME280;34005;48.844;10.098;2024-02-26T12:26:50;95056.88;;;12.50;52.09
48216;BME280;34005;48.844;10.098;2024-02-26T12:29:17;95057.66;;;12.50;51.85
48216;BME280;34005;48.844;10.098;2024-02-26T12:31:45;95058.72;;;12.49;52.16
48216;BME280;34005;48.844;10.098;2024-02-26T12:34:15;95059.19;;;12.46;52.30
48216;BME280;34005;48.844;10.098;2024-02-26T12:36:44;95061.47;;;12.43;51.28
48216;BME280;34005;48.844;10.098;2024-02-26T12:39:10;95063.03;;;12.44;55.82
48216;BME280;34005;48.844;10.098;2024-02-26T12:41:38;95057.81;;;12.44;52.28
48216;BME280;34005;48.844;10.098;2024-02-26T12:44:07;95069.88;;;12.45;54.98
48216;BME280;34005;48.844;10.098;2024-02-26T12:46:35;95077.25;;;12.48;55.53
48216;BME280;34005;48.844;10.098;2024-02-26T12:49:03;95076.22;;;12.49;53.49
48216;BME280;34005;48.844;10.098;2024-02-26T12:51:33;95070.19;;;12.48;54.93
48216;BME280;34005;48.844;10.098;2024-02-26T12:54:01;95080.41;;;12.50;52.67
48216;BME280;34005;48.844;10.098;2024-02-26T12:56:29;95083.03;;;12.50;52.08
48216;BME280;34005;48.844;10.098;2024-02-26T12:58:58;95074.41;;;12.49;50.56
48216;BME280;34005;48.844;10.098;2024-02-26T13:01:27;95085.66;;;12.50;49.81
48216;BME280;34005;48.844;10.098;2024-02-26T13:03:55;95081.47;;;12.49;49.44